Time;durP1;ratioP1;P1;durP2;ratioP2;P2;SDS_P1;SDS_P2;PMS_P1;PMS_P2;Temp;Humidity;BMP_temperature;BMP_pressure;BME280_temperature;BME280_humidity;BME280_pressure;Samples;Min_cycle;Max_cycle;Signal;HPM_P1;HPM_P2
2024/03/24 00:00:33;;;;;;;11.05;7.10;;;;;;;;;;5037199;28;20049;-60
2024/03/24 00:02:59;;;;;;;11.05;6.88;;;;;;;;;;5036152;28;20054;-59
2024/03/24 00:05:25;;;;;;;9.13;6.88;;;;;;;;;;5033896;28;20468;-60
2024/03/24 00:07:51;;;;;;;9.13;6.20;;;;;;;;;;5033553;28;20056;-60
2024/03/24 00:10:18;;;;;;;8.70;6.22;;;;;;;;;;5033601;28;20049;-59
2024/03/24 00:12:46;;;;;;;10.27;6.18;;;;;;;;;;5033975;28;20045;-60
2024/03/24 00:15:13;;;;;;;9.05;6.38;;;;;;;;;;5032727;28;20049;-60
2024/03/24 00:17:39;;;;;;;7.35;5.93;;;;;;;;;;5033712;28;20505;-60
2024/03/24 00:20:07;;;;;;;7.70;5.60;;;;;;;;;;5033932;28;20124;-59
2024/03/24 00:22:32;;;;;;;7.30;5.00;;;;;;;;;;5033322;28;20080;-60
2024/03/24 00:24:59;;;;;;;10.48;5.45;;;;;;;;;;5033421;28;20033;-60
2024/03/24 00:27:25;;;;;;;7.90;5.18;;;;;;;;;;5033887;28;20053;-60
2024/03/24 00:29:53;;;;;;;6.95;4.80;;;;;;;;;;5033344;28;20060;-59
2024/03/24 00:32:19;;;;;;;8.32;5.25;;;;;;;;;;5036436;28;20049;-60
2024/03/24 00:34:46;;;;;;;6.95;5.03;;;;;;;;;;5032468;28;20053;-60
2024/03/24 00:37:12;;;;;;;8.63;5.57;;;;;;;;;;5032368;28;20057;-61
2024/03/24 00:39:39;;;;;;;7.22;5.10;;;;;;;;;;5032590;28;20423;-60
2024/03/24 00:42:05;;;;;;;9.77;5.38;;;;;;;;;;5032703;28;20053;-60
2024/03/24 00:44:32;;;;;;;8.95;6.43;;;;;;;;;;5032670;28;20049;-60
2024/03/24 00:46:59;;;;;;;7.97;6.00;;;;;;;;;;5040858;28;20422;-60
2024/03/24 00:49:26;;;;;;;10.95;6.07;;;;;;;;;;5033445;28;20068;-60
2024/03/24 00:51:52;;;;;;;8.20;5.97;;;;;;;;;;5032597;28;20057;-60
2024/03/24 00:54:19;;;;;;;9.70;7.78;;;;;;;;;;5032353;28;20081;-60
2024/03/24 00:56:44;;;;;;;7.78;5.90;;;;;;;;;;5032802;28;20053;-59
2024/03/24 00:59:11;;;;;;;11.90;7.85;;;;;;;;;;5017020;28;20054;-60
2024/03/24 01:01:37;;;;;;;11.13;7.70;;;;;;;;;;5035903;28;20056;-59
2024/03/24 01:04:05;;;;;;;8.80;6.35;;;;;;;;;;5039495;28;20442;-59
2024/03/24 01:06:32;;;;;;;9.07;7.65;;;;;;;;;;5032469;28;20057;-60
2024/03/24 01:08:58;;;;;;;10.35;6.72;;;;;;;;;;5032945;28;20054;-59
2024/03/24 01:11:24;;;;;;;9.43;6.65;;;;;;;;;;5032990;28;20057;-61
2024/03/24 01:13:51;;;;;;;9.45;6.90;;;;;;;;;;5032995;28;20054;-60
2024/03/24 01:16:17;;;;;;;11.40;7.13;;;;;;;;;;5034656;28;20041;-60
2024/03/24 01:18:45;;;;;;;8.98;6.43;;;;;;;;;;5035091;28;20085;-59
2024/03/24 01:21:12;;;;;;;9.95;6.88;;;;;;;;;;5032708;28;20049;-59
2024/03/24 01:23:39;;;;;;;9.68;6.85;;;;;;;;;;5032822;28;20064;-59
2024/03/24 01:26:05;;;;;;;12.18;7.43;;;;;;;;;;5032822;28;20395;-59
2024/03/24 01:28:31;;;;;;;9.82;7.25;;;;;;;;;;5032341;28;20049;-60
2024/03/24 01:30:57;;;;;;;9.60;7.93;;;;;;;;;;5032170;28;20507;-60
2024/03/24 01:33:24;;;;;;;9.18;7.70;;;;;;;;;;5037482;28;20057;-60
2024/03/24 01:35:50;;;;;;;8.35;6.53;;;;;;;;;;5032291;28;20509;-59
2024/03/24 01:38:18;;;;;;;9.23;6.80;;;;;;;;;;5031974;28;20054;-59
2024/03/24 01:40:47;;;;;;;9.13;6.97;;;;;;;;;;5032355;28;20058;-59
2024/03/24 01:43:14;;;;;;;11.13;7.00;;;;;;;;;;5032235;28;20053;-60
2024/03/24 01:45:40;;;;;;;10.00;7.15;;;;;;;;;;5031750;28;20054;-59
2024/03/24 01:48:07;;;;;;;10.77;7.18;;;;;;;;;;5033421;28;20486;-59
2024/03/24 01:50:33;;;;;;;9.50;7.35;;;;;;;;;;5032542;28;20073;-59
2024/03/24 01:53:00;;;;;;;9.10;7.40;;;;;;;;;;5032004;28;20462;-59
2024/03/24 01:55:27;;;;;;;9.88;6.75;;;;;;;;;;5031781;28;20050;-59
2024/03/24 01:57:54;;;;;;;8.82;7.05;;;;;;;;;;5032497;28;20056;-60
2024/03/24 02:00:20;;;;;;;9.30;7.20;;;;;;;;;;5031729;28;20053;-59
2024/03/24 02:02:47;;;;;;;10.05;7.43;;;;;;;;;;5036029;28;20048;-59
2024/03/24 02:05:12;;;;;;;9.38;7.88;;;;;;;;;;5045675;28;20061;-59
2024/03/24 02:07:39;;;;;;;8.85;7.88;;;;;;;;;;5032440;28;20518;-59
2024/03/24 02:10:05;;;;;;;8.95;8.05;;;;;;;;;;5032008;28;20057;-59
2024/03/24 02:12:33;;;;;;;10.15;8.23;;;;;;;;;;5040891;28;20406;-59
2024/03/24 02:14:59;;;;;;;9.18;8.02;;;;;;;;;;5031493;28;20050;-58
2024/03/24 02:17:26;;;;;;;10.32;7.25;;;;;;;;;;5035526;28;20054;-59
2024/03/24 02:19:52;;;;;;;9.32;7.60;;;;;;;;;;5032057;28;20049;-59
2024/03/24 02:22:19;;;;;;;8.82;7.40;;;;;;;;;;5040551;28;20057;-60
2024/03/24 02:24:46;;;;;;;8.65;6.70;;;;;;;;;;5034938;28;20057;-61
2024/03/24 02:27:13;;;;;;;8.90;6.40;;;;;;;;;;5032151;28;20049;-58
2024/03/24 02:29:38;;;;;;;11.13;6.82;;;;;;;;;;5032962;28;20060;-59
2024/03/24 02:32:06;;;;;;;10.13;7.03;;;;;;;;;;5043413;28;20050;-59
2024/03/24 02:34:32;;;;;;;9.23;6.88;;;;;;;;;;5031564;28;20064;-61
2024/03/24 02:36:59;;;;;;;7.65;6.85;;;;;;;;;;5031596;28;20061;-60
2024/03/24 02:39:25;;;;;;;8.10;6.38;;;;;;;;;;5032407;28;20053;-60
2024/03/24 02:41:53;;;;;;;10.43;6.53;;;;;;;;;;5031445;28;20080;-59
2024/03/24 02:44:19;;;;;;;7.63;6.40;;;;;;;;;;5031629;28;20060;-59
2024/03/24 02:46:46;;;;;;;8.80;6.95;;;;;;;;;;5032465;28;20061;-59
2024/03/24 02:49:12;;;;;;;9.02;7.75;;;;;;;;;;5033821;28;20053;-59
2024/03/24 02:51:38;;;;;;;10.85;8.02;;;;;;;;;;5031431;28;20407;-59
2024/03/24 02:54:04;;;;;;;10.30;8.00;;;;;;;;;;5031447;28;20111;-59
2024/03/24 02:56:31;;;;;;;8.18;7.18;;;;;;;;;;5031581;28;20128;-58
2024/03/24 02:58:58;;;;;;;8.32;6.80;;;;;;;;;;5034863;28;20061;-58
2024/03/24 03:01:25;;;;;;;8.80;7.70;;;;;;;;;;5035022;28;20076;-58
2024/03/24 03:03:51;;;;;;;8.63;7.00;;;;;;;;;;5036948;28;20052;-60
2024/03/24 03:06:18;;;;;;;9.10;7.05;;;;;;;;;;5034731;28;20401;-59
2024/03/24 03:08:44;;;;;;;9.38;7.20;;;;;;;;;;5034827;28;20053;-60
2024/03/24 03:11:11;;;;;;;8.50;6.22;;;;;;;;;;5035015;28;20046;-59
2024/03/24 03:13:37;;;;;;;8.55;6.55;;;;;;;;;;5034399;28;20058;-59
2024/03/24 03:16:05;;;;;;;10.43;7.28;;;;;;;;;;5034867;28;20471;-59
2024/03/24 03:18:31;;;;;;;10.55;8.30;;;;;;;;;;5037482;28;20054;-59
2024/03/24 03:20:58;;;;;;;12.63;7.85;;;;;;;;;;5034522;28;20048;-60
2024/03/24 03:23:24;;;;;;;9.85;8.57;;;;;;;;;;5034936;28;20061;-59
2024/03/24 03:25:51;;;;;;;9.70;7.85;;;;;;;;;;5034440;28;20049;-59
2024/03/24 03:28:18;;;;;;;8.52;7.55;;;;;;;;;;5034323;28;20053;-59
2024/03/24 03:30:44;;;;;;;11.15;8.55;;;;;;;;;;5034320;28;20053;-58
2024/03/24 03:33:13;;;;;;;13.65;8.48;;;;;;;;;;5036244;28;20046;-58
2024/03/24 03:35:40;;;;;;;14.63;10.57;;;;;;;;;;5034969;28;20418;-59
2024/03/24 03:38:06;;;;;;;11.48;10.15;;;;;;;;;;5034404;28;20046;-59
2024/03/24 03:40:33;;;;;;;12.90;10.65;;;;;;;;;;5037922;28;20051;-58
2024/03/24 03:42:58;;;;;;;17.08;13.55;;;;;;;;;;5035151;28;20064;-58
2024/03/24 03:45:26;;;;;;;15.07;10.48;;;;;;;;;;5033510;28;20061;-59
2024/03/24 03:47:51;;;;;;;13.13;9.68;;;;;;;;;;5034283;28;20046;-58
2024/03/24 03:50:20;;;;;;;12.25;9.25;;;;;;;;;;5046306;28;20053;-59
2024/03/24 03:52:47;;;;;;;15.93;11.15;;;;;;;;;;5049512;28;20046;-59
2024/03/24 03:55:15;;;;;;;12.80;10.13;;;;;;;;;;5026196;28;20399;-59
2024/03/24 03:57:41;;;;;;;13.18;10.75;;;;;;;;;;5033648;28;20049;-60
2024/03/24 04:00:10;;;;;;;10.73;8.88;;;;;;;;;;5034013;28;20183;-57
2024/03/24 04:02:36;;;;;;;11.38;8.13;;;;;;;;;;5037221;28;20061;-59
2024/03/24 04:05:03;;;;;;;11.40;9.30;;;;;;;;;;5028673;28;20060;-59
2024/03/24 04:07:31;;;;;;;10.95;9.35;;;;;;;;;;5034000;28;20490;-58
2024/03/24 04:09:57;;;;;;;9.63;8.27;;;;;;;;;;5034060;28;20510;-59
2024/03/24 04:12:23;;;;;;;8.52;7.55;;;;;;;;;;5033623;28;20398;-59
2024/03/24 04:14:50;;;;;;;8.85;7.47;;;;;;;;;;5033851;28;20073;-59
2024/03/24 04:17:16;;;;;;;7.45;6.57;;;;;;;;;;5033616;28;20049;-58
2024/03/24 04:19:43;;;;;;;10.35;7.47;;;;;;;;;;5034784;28;20047;-59
2024/03/24 04:22:08;;;;;;;9.75;7.68;;;;;;;;;;5037715;28;20064;-58
2024/03/24 04:24:37;;;;;;;8.60;7.03;;;;;;;;;;5031788;28;20518;-58
2024/03/24 04:27:02;;;;;;;8.27;5.95;;;;;;;;;;5033638;28;20046;-58
2024/03/24 04:29:29;;;;;;;8.98;6.55;;;;;;;;;;5036550;28;20549;-58
2024/03/24 04:31:55;;;;;;;7.57;6.53;;;;;;;;;;5032413;28;20053;-58
2024/03/24 04:34:22;;;;;;;6.90;5.72;;;;;;;;;;5034927;28;20411;-57
2024/03/24 04:36:48;;;;;;;8.40;6.78;;;;;;;;;;5032971;28;20060;-57
2024/03/24 04:39:18;;;;;;;7.57;6.45;;;;;;;;;;5033074;28;20045;-58
2024/03/24 04:41:46;;;;;;;7.82;6.15;;;;;;;;;;5030458;28;20049;-58
2024/03/24 04:44:13;;;;;;;9.38;6.25;;;;;;;;;;5033312;28;20054;-58
2024/03/24 04:46:40;;;;;;;9.18;7.10;;;;;;;;;;5032686;28;20396;-58
2024/03/24 04:49:07;;;;;;;9.88;7.20;;;;;;;;;;5033645;28;20049;-58
2024/03/24 04:51:33;;;;;;;9.68;7.70;;;;;;;;;;5033209;28;20053;-58
2024/03/24 04:54:00;;;;;;;11.93;8.25;;;;;;;;;;5032488;28;20140;-58
2024/03/24 04:56:26;;;;;;;9.45;7.30;;;;;;;;;;5032670;28;20064;-58
2024/03/24 04:58:54;;;;;;;11.13;7.60;;;;;;;;;;5034455;28;20049;-58
2024/03/24 05:01:20;;;;;;;14.77;8.48;;;;;;;;;;5042319;28;20435;-57
2024/03/24 05:03:47;;;;;;;15.43;10.15;;;;;;;;;;5035317;28;20056;-58
2024/03/24 05:06:12;;;;;;;12.45;9.43;;;;;;;;;;5043890;28;20426;-58
2024/03/24 05:08:40;;;;;;;14.60;9.50;;;;;;;;;;5051240;28;20053;-57
2024/03/24 05:11:06;;;;;;;11.07;8.48;;;;;;;;;;5051563;28;20436;-58
2024/03/24 05:13:33;;;;;;;10.00;7.38;;;;;;;;;;5052714;28;20403;-59
2024/03/24 05:16:00;;;;;;;11.48;7.07;;;;;;;;;;5053118;28;20048;-59
2024/03/24 05:18:27;;;;;;;9.45;6.80;;;;;;;;;;5052540;28;20048;-59
2024/03/24 05:20:53;;;;;;;10.93;6.55;;;;;;;;;;5052284;28;20052;-59
2024/03/24 05:23:20;;;;;;;9.65;6.63;;;;;;;;;;5052583;28;20052;-59
2024/03/24 05:25:48;;;;;;;8.52;6.53;;;;;;;;;;5052483;28;20064;-59
2024/03/24 05:28:15;;;;;;;9.23;6.47;;;;;;;;;;5052362;28;20049;-59
2024/03/24 05:30:41;;;;;;;9.32;6.65;;;;;;;;;;5052689;28;20057;-59
2024/03/24 05:33:09;;;;;;;8.63;5.65;;;;;;;;;;5052345;28;20060;-58
2024/03/24 05:35:35;;;;;;;8.55;6.40;;;;;;;;;;5052673;28;20115;-58
2024/03/24 05:38:02;;;;;;;10.63;6.60;;;;;;;;;;5052004;28;20089;-58
2024/03/24 05:40:28;;;;;;;8.82;6.47;;;;;;;;;;5052965;28;20064;-58
2024/03/24 05:42:55;;;;;;;9.98;6.22;;;;;;;;;;5051935;28;20128;-58
2024/03/24 05:45:20;;;;;;;7.80;6.25;;;;;;;;;;5051834;28;20057;-58
2024/03/24 05:47:48;;;;;;;6.75;6.05;;;;;;;;;;5052399;28;20482;-58
2024/03/24 05:50:16;;;;;;;7.25;6.15;;;;;;;;;;5052574;28;20434;-58
2024/03/24 05:52:42;;;;;;;8.65;6.30;;;;;;;;;;5052498;28;20483;-58
2024/03/24 05:55:10;;;;;;;7.28;4.70;;;;;;;;;;5052737;28;20064;-58
2024/03/24 05:57:36;;;;;;;6.65;4.82;;;;;;;;;;5052174;28;20056;-58
2024/03/24 06:00:04;;;;;;;6.70;4.68;;;;;;;;;;5052450;28;20053;-58
2024/03/24 06:02:30;;;;;;;6.03;4.30;;;;;;;;;;5052706;28;20060;-58
2024/03/24 06:04:57;;;;;;;5.70;4.43;;;;;;;;;;5052661;28;20048;-58
2024/03/24 06:07:24;;;;;;;5.45;4.55;;;;;;;;;;5052332;28;20053;-58
2024/03/24 06:09:51;;;;;;;5.32;4.35;;;;;;;;;;5052264;28;20053;-59
2024/03/24 06:12:17;;;;;;;6.40;4.72;;;;;;;;;;5052041;28;20053;-59
2024/03/24 06:14:44;;;;;;;5.25;4.30;;;;;;;;;;5052191;28;20057;-59
2024/03/24 06:17:10;;;;;;;5.18;3.78;;;;;;;;;;5051951;28;20056;-59
2024/03/24 06:19:36;;;;;;;6.38;4.10;;;;;;;;;;5051681;28;20564;-59
2024/03/24 06:22:02;;;;;;;4.80;3.70;;;;;;;;;;5051962;28;20061;-59
2024/03/24 06:24:30;;;;;;;4.35;3.38;;;;;;;;;;5052042;28;20079;-59
2024/03/24 06:26:56;;;;;;;4.53;3.40;;;;;;;;;;5052062;28;20045;-59
2024/03/24 06:29:23;;;;;;;4.63;3.00;;;;;;;;;;5051899;28;20443;-60
2024/03/24 06:31:49;;;;;;;4.70;2.97;;;;;;;;;;5051906;28;20068;-59
2024/03/24 06:34:15;;;;;;;4.20;2.90;;;;;;;;;;5055177;28;20052;-59
2024/03/24 06:36:41;;;;;;;3.85;3.30;;;;;;;;;;5055526;28;20056;-59
2024/03/24 06:39:08;;;;;;;3.97;2.90;;;;;;;;;;5055468;28;20106;-59
2024/03/24 06:41:38;;;;;;;5.95;3.47;;;;;;;;;;5055282;28;20406;-59
2024/03/24 06:44:11;;;;;;;;;;;;;;;;;;5056133;28;20486;-59
2024/03/24 06:46:37;;;;;;;5.45;3.83;;;;;;;;;;5055427;28;19920;-60
2024/03/24 06:49:04;;;;;;;4.80;3.90;;;;;;;;;;5055266;28;20045;-59
2024/03/24 06:51:30;;;;;;;7.93;4.75;;;;;;;;;;5055367;28;20053;-59
2024/03/24 06:53:56;;;;;;;7.30;4.65;;;;;;;;;;5055041;28;20051;-59
2024/03/24 06:56:22;;;;;;;6.28;4.25;;;;;;;;;;5055281;28;20406;-59
2024/03/24 06:58:51;;;;;;;8.20;5.00;;;;;;;;;;5054537;28;20049;-59
2024/03/24 07:01:17;;;;;;;6.55;4.65;;;;;;;;;;5055117;28;20060;-59
2024/03/24 07:03:44;;;;;;;6.75;4.55;;;;;;;;;;5054618;28;20049;-59
2024/03/24 07:06:12;;;;;;;6.35;4.70;;;;;;;;;;5054750;28;20379;-59
2024/03/24 07:08:38;;;;;;;6.47;4.88;;;;;;;;;;5054687;28;20060;-59
2024/03/24 07:11:04;;;;;;;8.27;4.43;;;;;;;;;;5054660;28;20483;-59
2024/03/24 07:13:31;;;;;;;5.63;4.50;;;;;;;;;;5054581;28;20049;-59
2024/03/24 07:15:58;;;;;;;6.43;3.60;;;;;;;;;;5055170;28;20497;-59
2024/03/24 07:18:25;;;;;;;4.43;3.28;;;;;;;;;;5054560;28;20491;-59
2024/03/24 07:20:57;;;;;;;5.10;3.30;;;;;;;;;;5054341;28;20510;-59
2024/03/24 07:23:23;;;;;;;4.70;2.85;;;;;;;;;;5054622;28;20056;-58
2024/03/24 07:25:49;;;;;;;5.63;3.17;;;;;;;;;;5054466;28;20060;-59
2024/03/24 07:28:16;;;;;;;6.22;3.58;;;;;;;;;;5054720;28;20045;-58
2024/03/24 07:30:42;;;;;;;5.35;2.95;;;;;;;;;;5054680;28;20064;-58
2024/03/24 07:33:11;;;;;;;5.53;3.38;;;;;;;;;;5054453;28;20085;-58
2024/03/24 07:35:37;;;;;;;6.53;3.78;;;;;;;;;;5054393;28;20419;-58
2024/03/24 07:38:03;;;;;;;6.15;3.53;;;;;;;;;;5053787;28;20064;-58
2024/03/24 07:40:29;;;;;;;4.22;2.88;;;;;;;;;;5054632;28;20056;-59
2024/03/24 07:42:56;;;;;;;4.75;2.58;;;;;;;;;;5053622;28;20055;-58
2024/03/24 07:45:23;;;;;;;4.25;2.58;;;;;;;;;;5054136;28;20053;-59
2024/03/24 07:47:49;;;;;;;3.50;2.10;;;;;;;;;;5053985;28;20048;-58
2024/03/24 07:50:17;;;;;;;4.20;2.30;;;;;;;;;;5054550;28;20057;-59
2024/03/24 07:52:44;;;;;;;4.63;2.20;;;;;;;;;;5054966;28;20057;-58
2024/03/24 07:55:10;;;;;;;3.80;1.88;;;;;;;;;;5054957;28;20486;-58
2024/03/24 07:57:38;;;;;;;5.15;1.92;;;;;;;;;;5054134;28;20055;-59
2024/03/24 08:00:06;;;;;;;4.25;2.00;;;;;;;;;;5054382;28;20057;-59
2024/03/24 08:02:33;;;;;;;4.20;2.25;;;;;;;;;;5054035;28;20059;-59
2024/03/24 08:04:58;;;;;;;3.95;1.92;;;;;;;;;;5054240;28;20056;-59
2024/03/24 08:07:27;;;;;;;4.55;2.30;;;;;;;;;;5053967;28;20048;-58
2024/03/24 08:09:52;;;;;;;5.88;2.50;;;;;;;;;;5054251;28;20171;-59
2024/03/24 08:12:19;;;;;;;7.93;2.70;;;;;;;;;;5053401;28;20505;-59
2024/03/24 08:14:45;;;;;;;5.03;3.17;;;;;;;;;;5053931;28;20478;-59
2024/03/24 08:17:12;;;;;;;10.15;3.83;;;;;;;;;;5053366;28;20049;-59
2024/03/24 08:19:38;;;;;;;8.70;3.63;;;;;;;;;;5053183;28;20060;-59
2024/03/24 08:22:05;;;;;;;5.93;3.60;;;;;;;;;;5053444;28;20534;-59
2024/03/24 08:24:32;;;;;;;6.72;3.20;;;;;;;;;;5053867;28;20401;-59
2024/03/24 08:26:59;;;;;;;4.93;3.20;;;;;;;;;;5053282;28;20057;-59
2024/03/24 08:29:24;;;;;;;6.72;3.78;;;;;;;;;;5053467;28;20045;-59
2024/03/24 08:31:51;;;;;;;8.60;4.28;;;;;;;;;;5053321;28;20391;-59
2024/03/24 08:34:17;;;;;;;10.27;5.00;;;;;;;;;;5053323;28;20080;-59
2024/03/24 08:36:44;;;;;;;9.18;3.85;;;;;;;;;;5053025;28;20088;-59
2024/03/24 08:39:09;;;;;;;10.60;4.35;;;;;;;;;;5053291;28;20049;-59
2024/03/24 08:41:38;;;;;;;9.32;4.82;;;;;;;;;;5053542;28;20410;-59
2024/03/24 08:44:04;;;;;;;7.80;4.70;;;;;;;;;;5053045;28;20056;-59
2024/03/24 08:46:30;;;;;;;7.07;4.40;;;;;;;;;;5052663;28;20064;-59
2024/03/24 08:48:56;;;;;;;5.05;4.18;;;;;;;;;;5053207;28;20049;-59
2024/03/24 08:51:23;;;;;;;6.60;4.80;;;;;;;;;;5052542;28;20514;-59
2024/03/24 08:53:49;;;;;;;6.13;4.15;;;;;;;;;;5052879;28;20406;-59
2024/03/24 08:56:16;;;;;;;6.70;4.20;;;;;;;;;;5052246;28;20128;-59
2024/03/24 08:58:43;;;;;;;4.35;3.63;;;;;;;;;;5052794;28;20075;-59
2024/03/24 09:01:10;;;;;;;4.43;3.50;;;;;;;;;;5052570;28;20131;-59
2024/03/24 09:03:36;;;;;;;6.80;3.80;;;;;;;;;;5052710;28;20053;-59
2024/03/24 09:06:02;;;;;;;4.43;3.42;;;;;;;;;;5052289;28;20049;-59
2024/03/24 09:08:28;;;;;;;5.30;3.30;;;;;;;;;;5052675;28;20049;-59
2024/03/24 09:10:55;;;;;;;4.30;2.80;;;;;;;;;;5052801;28;20049;-58
2024/03/24 09:13:21;;;;;;;2.38;2.00;;;;;;;;;;5052135;28;20060;-58
2024/03/24 09:15:50;;;;;;;4.20;1.98;;;;;;;;;;5051990;28;20049;-58
2024/03/24 09:18:16;;;;;;;2.58;2.08;;;;;;;;;;5052353;28;20049;-58
2024/03/24 09:20:43;;;;;;;2.95;1.88;;;;;;;;;;5052209;28;20531;-58
2024/03/24 09:23:09;;;;;;;2.92;2.30;;;;;;;;;;5052107;28;20075;-58
2024/03/24 09:25:36;;;;;;;4.72;2.72;;;;;;;;;;5052329;28;20127;-59
2024/03/24 09:28:02;;;;;;;4.28;3.38;;;;;;;;;;5052293;28;20414;-58
2024/03/24 09:30:28;;;;;;;4.22;3.25;;;;;;;;;;5052058;28;20080;-58
2024/03/24 09:32:56;;;;;;;4.95;3.22;;;;;;;;;;5052066;28;20049;-58
2024/03/24 09:35:22;;;;;;;6.25;4.43;;;;;;;;;;5052441;28;20508;-58
2024/03/24 09:37:49;;;;;;;7.07;4.57;;;;;;;;;;5052324;28;20060;-59
2024/03/24 09:40:15;;;;;;;7.20;4.30;;;;;;;;;;5052537;28;20060;-59
2024/03/24 09:42:42;;;;;;;7.55;4.18;;;;;;;;;;5052248;28;20060;-59
2024/03/24 09:45:10;;;;;;;6.43;4.43;;;;;;;;;;5051862;28;20049;-59
2024/03/24 09:47:38;;;;;;;4.93;4.03;;;;;;;;;;5052109;28;20049;-59
2024/03/24 09:50:08;;;;;;;8.50;4.80;;;;;;;;;;5052373;28;20049;-59
2024/03/24 09:52:34;;;;;;;9.15;5.30;;;;;;;;;;5051982;28;20056;-59
2024/03/24 09:55:01;;;;;;;7.68;5.18;;;;;;;;;;5052219;28;20091;-60
2024/03/24 09:57:29;;;;;;;8.10;5.70;;;;;;;;;;5052052;28;20064;-60
2024/03/24 09:59:56;;;;;;;8.73;4.80;;;;;;;;;;5052223;28;20410;-60
2024/03/24 10:02:22;;;;;;;9.85;5.05;;;;;;;;;;5052127;28;20057;-59
2024/03/24 10:04:49;;;;;;;7.80;4.68;;;;;;;;;;5052169;28;20375;-59
2024/03/24 10:07:16;;;;;;;7.30;5.07;;;;;;;;;;5054386;28;20053;-59
2024/03/24 10:09:43;;;;;;;8.23;5.65;;;;;;;;;;5055657;28;20053;-59
2024/03/24 10:12:10;;;;;;;8.93;5.47;;;;;;;;;;5055953;28;20502;-58
2024/03/24 10:14:37;;;;;;;11.75;5.07;;;;;;;;;;5055714;28;20475;-59
2024/03/24 10:17:16;;;;;;;9.10;5.63;;;;;;;;;;5055852;28;20057;-59
2024/03/24 10:19:46;;;;;;;9.70;5.32;;;;;;;;;;5055915;28;20367;-60
2024/03/24 10:22:12;;;;;;;12.10;5.90;;;;;;;;;;5056047;28;20060;-59
2024/03/24 10:24:43;;;;;;;7.65;4.65;;;;;;;;;;5055714;28;20064;-59
2024/03/24 10:27:09;;;;;;;10.10;5.63;;;;;;;;;;5055538;28;20053;-59
2024/03/24 10:29:36;;;;;;;7.10;4.22;;;;;;;;;;5055700;28;20049;-59
2024/03/24 10:32:02;;;;;;;8.55;4.25;;;;;;;;;;5055283;28;20068;-59
2024/03/24 10:34:32;;;;;;;7.30;3.83;;;;;;;;;;5055526;28;20053;-60
2024/03/24 10:36:57;;;;;;;7.97;4.20;;;;;;;;;;5055629;28;20406;-59
2024/03/24 10:39:24;;;;;;;10.50;5.32;;;;;;;;;;5055096;28;20063;-60
2024/03/24 10:41:52;;;;;;;7.93;4.25;;;;;;;;;;5055231;28;20057;-59
2024/03/24 10:44:20;;;;;;;11.23;4.00;;;;;;;;;;5055094;28;20390;-59
2024/03/24 10:46:46;;;;;;;8.13;4.00;;;;;;;;;;5054965;28;20060;-59
2024/03/24 10:49:14;;;;;;;9.13;4.05;;;;;;;;;;5055195;28;20049;-59
2024/03/24 10:51:40;;;;;;;6.03;4.03;;;;;;;;;;5055380;28;20055;-59
2024/03/24 10:54:08;;;;;;;9.07;4.90;;;;;;;;;;5055218;28;20053;-60
2024/03/24 10:56:34;;;;;;;9.88;4.35;;;;;;;;;;5055322;28;20509;-60
2024/03/24 10:59:04;;;;;;;8.13;3.75;;;;;;;;;;5055222;28;20053;-59
2024/03/24 11:01:30;;;;;;;7.07;3.55;;;;;;;;;;5054894;28;20053;-59
2024/03/24 11:03:58;;;;;;;5.88;3.25;;;;;;;;;;5055295;28;20123;-59
2024/03/24 11:06:25;;;;;;;9.63;4.32;;;;;;;;;;5054889;28;20076;-59
2024/03/24 11:08:51;;;;;;;10.00;4.20;;;;;;;;;;5054786;28;20048;-59
2024/03/24 11:11:18;;;;;;;8.02;4.40;;;;;;;;;;5054672;28;20060;-59
2024/03/24 11:13:45;;;;;;;8.02;3.95;;;;;;;;;;5054515;28;20059;-60
2024/03/24 11:16:13;;;;;;;7.32;3.50;;;;;;;;;;5054881;28;20049;-60
2024/03/24 11:18:41;;;;;;;5.53;3.25;;;;;;;;;;5054108;28;20056;-59
2024/03/24 11:21:27;;;;;;;5.40;3.00;;;;;;;;;;5054667;28;20076;-59
2024/03/24 11:23:54;;;;;;;9.43;3.05;;;;;;;;;;5054362;28;20493;-59
2024/03/24 11:26:25;;;;;;;7.85;3.05;;;;;;;;;;5054394;28;20060;-59
2024/03/24 11:28:52;;;;;;;8.30;2.78;;;;;;;;;;5055015;28;20048;-59
2024/03/24 11:31:32;;;;;;;7.50;3.05;;;;;;;;;;5054410;28;20053;-59
2024/03/24 11:33:59;;;;;;;;;;;;;;;;;;5054968;28;20053;-59
2024/03/24 11:36:25;;;;;;;7.63;3.17;;;;;;;;;;5054700;28;19925;-59
2024/03/24 11:38:53;;;;;;;5.45;2.40;;;;;;;;;;5054382;28;20474;-59
2024/03/24 11:41:19;;;;;;;4.45;2.50;;;;;;;;;;5053981;28;20418;-59
2024/03/24 11:43:52;;;;;;;5.93;2.65;;;;;;;;;;5054057;28;20060;-59
2024/03/24 11:46:18;;;;;;;5.82;2.90;;;;;;;;;;5054054;28;20510;-59
2024/03/24 11:48:48;;;;;;;6.80;3.33;;;;;;;;;;5053852;28;20490;-59
2024/03/24 11:51:14;;;;;;;;;;;;;;;;;;5054712;28;20493;-59
2024/03/24 11:53:41;;;;;;;8.98;3.50;;;;;;;;;;5054318;28;19917;-59
2024/03/24 11:56:07;;;;;;;8.38;3.30;;;;;;;;;;5053892;28;20509;-59
2024/03/24 11:58:34;;;;;;;7.03;3.25;;;;;;;;;;5053686;28;20055;-59
2024/03/24 12:01:00;;;;;;;8.88;3.95;;;;;;;;;;5054163;28;20056;-59
2024/03/24 12:03:27;;;;;;;7.82;5.03;;;;;;;;;;5053908;28;20091;-59
2024/03/24 12:05:56;;;;;;;10.48;4.15;;;;;;;;;;5054039;28;20053;-59
2024/03/24 12:08:25;;;;;;;10.88;4.07;;;;;;;;;;5053695;28;20418;-59
2024/03/24 12:10:51;;;;;;;8.13;3.80;;;;;;;;;;5053617;28;20061;-59
2024/03/24 12:13:18;;;;;;;7.60;3.47;;;;;;;;;;5053521;28;20051;-59
2024/03/24 12:15:44;;;;;;;8.02;3.05;;;;;;;;;;5053765;28;20053;-59
2024/03/24 12:18:11;;;;;;;6.80;3.08;;;;;;;;;;5053325;28;20056;-59
2024/03/24 12:20:37;;;;;;;9.70;3.38;;;;;;;;;;5053624;28;20079;-59
2024/03/24 12:23:06;;;;;;;5.10;3.15;;;;;;;;;;5053373;28;20049;-59
2024/03/24 12:25:32;;;;;;;5.93;3.17;;;;;;;;;;5053377;28;20056;-59
2024/03/24 12:27:59;;;;;;;6.22;3.47;;;;;;;;;;5053717;28;20501;-59
2024/03/24 12:30:25;;;;;;;5.70;3.47;;;;;;;;;;5052102;28;20059;-59
2024/03/24 12:32:52;;;;;;;5.68;3.35;;;;;;;;;;5053153;28;20507;-59
2024/03/24 12:35:19;;;;;;;5.68;2.95;;;;;;;;;;5053549;28;20053;-59
2024/03/24 12:37:46;;;;;;;8.02;3.67;;;;;;;;;;5052994;28;20049;-59
2024/03/24 12:40:19;;;;;;;4.25;2.75;;;;;;;;;;5053539;28;20064;-59
2024/03/24 12:42:46;;;;;;;5.00;2.60;;;;;;;;;;5052724;28;20053;-59
2024/03/24 12:45:14;;;;;;;6.53;2.72;;;;;;;;;;5053235;28;20478;-59
2024/03/24 12:47:41;;;;;;;4.18;1.77;;;;;;;;;;5053170;28;20045;-60
2024/03/24 12:50:22;;;;;;;3.47;1.98;;;;;;;;;;5053301;28;20045;-59
2024/03/24 12:52:49;;;;;;;4.47;2.10;;;;;;;;;;5052618;28;20049;-59
2024/03/24 12:55:15;;;;;;;7.28;2.13;;;;;;;;;;5052968;28;20160;-60
2024/03/24 12:57:43;;;;;;;5.20;2.50;;;;;;;;;;5052443;28;20056;-60
2024/03/24 13:00:09;;;;;;;4.82;2.80;;;;;;;;;;5052979;28;20049;-60
2024/03/24 13:02:36;;;;;;;5.28;2.40;;;;;;;;;;5052828;28;20064;-59
2024/03/24 13:05:04;;;;;;;6.57;2.90;;;;;;;;;;5053130;28;20057;-60
2024/03/24 13:07:31;;;;;;;6.28;2.75;;;;;;;;;;5053320;28;20044;-60
2024/03/24 13:09:57;;;;;;;6.90;2.63;;;;;;;;;;5052815;28;20045;-60
2024/03/24 13:12:23;;;;;;;6.25;3.33;;;;;;;;;;5052686;28;20049;-60
2024/03/24 13:14:50;;;;;;;4.82;2.05;;;;;;;;;;5053080;28;20060;-60
2024/03/24 13:17:21;;;;;;;5.40;2.10;;;;;;;;;;5052610;28;20076;-60
2024/03/24 13:19:49;;;;;;;4.40;1.95;;;;;;;;;;5053295;28;20045;-60
2024/03/24 13:22:16;;;;;;;5.20;2.10;;;;;;;;;;5052469;28;20546;-60
2024/03/24 13:24:44;;;;;;;4.30;2.00;;;;;;;;;;5052382;28;20075;-60
2024/03/24 13:27:14;;;;;;;5.70;2.10;;;;;;;;;;5052536;28;20406;-60
2024/03/24 13:29:40;;;;;;;4.78;2.13;;;;;;;;;;5052450;28;20044;-60
2024/03/24 13:32:08;;;;;;;6.80;2.75;;;;;;;;;;5052714;28;20055;-60
2024/03/24 13:34:34;;;;;;;5.38;2.15;;;;;;;;;;5052415;28;20057;-59
2024/03/24 13:37:08;;;;;;;5.57;2.33;;;;;;;;;;5051822;28;20049;-60
2024/03/24 13:39:38;;;;;;;6.82;2.65;;;;;;;;;;5052288;28;20471;-59
2024/03/24 13:42:11;;;;;;;7.57;3.10;;;;;;;;;;5051287;28;20049;-60
2024/03/24 13:44:41;;;;;;;6.90;2.78;;;;;;;;;;5052352;28;20402;-60
2024/03/24 13:47:12;;;;;;;6.80;2.80;;;;;;;;;;5051675;28;20521;-59
2024/03/24 13:49:38;;;;;;;5.47;2.72;;;;;;;;;;5052316;28;20049;-58
2024/03/24 13:52:06;;;;;;;6.97;3.30;;;;;;;;;;5051741;28;20404;-59
2024/03/24 13:54:33;;;;;;;6.35;3.45;;;;;;;;;;5052341;28;20053;-59
2024/03/24 13:57:00;;;;;;;7.53;3.47;;;;;;;;;;5051374;28;20056;-59
2024/03/24 13:59:25;;;;;;;8.13;3.25;;;;;;;;;;5052038;28;20057;-60
2024/03/24 14:01:52;;;;;;;7.10;2.88;;;;;;;;;;5051802;28;20402;-59
2024/03/24 14:04:20;;;;;;;7.38;2.70;;;;;;;;;;5051474;28;20060;-59
2024/03/24 14:06:46;;;;;;;6.95;2.40;;;;;;;;;;5051973;28;20057;-59
2024/03/24 14:09:12;;;;;;;6.35;2.65;;;;;;;;;;5052212;28;20059;-59
2024/03/24 14:11:39;;;;;;;7.22;3.20;;;;;;;;;;5052227;28;20049;-59
2024/03/24 14:14:14;;;;;;;8.00;2.80;;;;;;;;;;5052029;28;20198;-59
2024/03/24 14:16:45;;;;;;;6.65;2.55;;;;;;;;;;5051865;28;20414;-59
2024/03/24 14:19:13;;;;;;;7.38;2.92;;;;;;;;;;5051987;28;20414;-59
2024/03/24 14:21:43;;;;;;;6.10;2.33;;;;;;;;;;5051598;28;20041;-58
2024/03/24 14:24:14;;;;;;;5.18;2.50;;;;;;;;;;5051703;28;20053;-59
2024/03/24 14:26:40;;;;;;;6.28;2.42;;;;;;;;;;5051860;28;20052;-59
2024/03/24 14:29:06;;;;;;;5.72;2.42;;;;;;;;;;5051912;28;20057;-59
2024/03/24 14:31:33;;;;;;;7.38;2.58;;;;;;;;;;5051817;28;20049;-59
2024/03/24 14:33:59;;;;;;;6.82;2.72;;;;;;;;;;5051641;28;20057;-59
2024/03/24 14:36:33;;;;;;;6.38;3.35;;;;;;;;;;5052064;28;20056;-59
2024/03/24 14:39:20;;;;;;;7.90;3.22;;;;;;;;;;5051534;28;20049;-60